createdAt,value
2022-12-04T00:01:20.877Z,102140.59
2022-12-04T00:03:49.064Z,102132.91
2022-12-04T00:06:18.711Z,102132.25
2022-12-04T00:08:48.615Z,102137.53
2022-12-04T00:11:18.896Z,102136.78
2022-12-04T00:13:46.912Z,102124.72
2022-12-04T00:16:19.974Z,102125.38
2022-12-04T00:18:48.358Z,102123.56
2022-12-04T00:21:17.351Z,102122.59
2022-12-04T00:23:45.994Z,102124.31
2022-12-04T00:26:16.516Z,102123.28
2022-12-04T00:28:45.367Z,102115.25
2022-12-04T00:31:15.686Z,102119.41
2022-12-04T00:33:45.052Z,102124.13
2022-12-04T00:36:14.790Z,102124.63
2022-12-04T00:38:44.106Z,102123.28
2022-12-04T00:41:13.228Z,102127.59
2022-12-04T00:43:41.620Z,102120.09
2022-12-04T00:46:10.273Z,102123.94
2022-12-04T00:48:38.717Z,102123.16
2022-12-04T00:51:09.983Z,102119.78
2022-12-04T00:53:38.483Z,102121.25
2022-12-04T00:56:07.342Z,102118.03
2022-12-04T00:58:35.318Z,102119.78
2022-12-04T01:01:05.208Z,102116.22
2022-12-04T01:03:33.356Z,102118.56
2022-12-04T01:06:01.735Z,102123.47
2022-12-04T01:08:31.092Z,102115.19
2022-12-04T01:10:59.217Z,102120.75
2022-12-04T01:13:27.943Z,102122.00
2022-12-04T01:15:55.841Z,102117.19
2022-12-04T01:18:23.742Z,102115.06
2022-12-04T01:20:52.881Z,102114.69
2022-12-04T01:23:21.049Z,102112.66
2022-12-04T01:25:55.264Z,102112.38
2022-12-04T01:28:24.022Z,102109.38
2022-12-04T01:31:02.919Z,102111.38
2022-12-04T01:33:31.751Z,102115.16
2022-12-04T01:36:01.153Z,102113.06
2022-12-04T01:38:29.907Z,102106.66
2022-12-04T01:40:59.842Z,102100.81
2022-12-04T01:43:30.723Z,102104.75
2022-12-04T01:45:59.635Z,102105.16
2022-12-04T01:48:31.018Z,102104.84
2022-12-04T01:51:06.512Z,102104.47
2022-12-04T01:53:36.246Z,102097.34
2022-12-04T01:56:06.940Z,102108.81
2022-12-04T01:58:38.593Z,102105.63
2022-12-04T02:01:09.128Z,102106.19
2022-12-04T02:03:38.292Z,102096.19
2022-12-04T02:06:06.997Z,102093.22
2022-12-04T02:08:37.015Z,102098.41
2022-12-04T02:11:17.183Z,102097.06
2022-12-04T02:13:57.451Z,102095.19
2022-12-04T02:16:34.328Z,102097.34
2022-12-04T02:19:20.007Z,102099.84
2022-12-04T02:21:50.535Z,102096.06
2022-12-04T02:24:48.285Z,102094.38
2022-12-04T02:27:32.611Z,102096.28
2022-12-04T02:30:05.578Z,102094.84
2022-12-04T02:32:39.596Z,102097.81
2022-12-04T02:35:13.625Z,102096.38
2022-12-04T02:37:46.760Z,102091.47
2022-12-04T02:40:22.786Z,102084.69
2022-12-04T02:42:57.904Z,102091.25
2022-12-04T02:45:32.203Z,102087.69
2022-12-04T02:48:02.301Z,102088.75
2022-12-04T02:50:33.599Z,102096.00
2022-12-04T02:53:06.418Z,102096.94
2022-12-04T02:55:39.560Z,102096.19
2022-12-04T02:58:14.134Z,102091.66
2022-12-04T03:00:46.628Z,102097.25
2022-12-04T03:03:19.580Z,102085.47
2022-12-04T03:05:54.591Z,102088.09
2022-12-04T03:08:27.252Z,102086.44
2022-12-04T03:10:57.921Z,102090.88
2022-12-04T03:13:31.870Z,102088.56
2022-12-04T03:16:05.070Z,102090.59
2022-12-04T03:18:37.342Z,102095.50
2022-12-04T03:21:09.845Z,102101.38
2022-12-04T03:23:45.346Z,102107.06
2022-12-04T03:26:20.106Z,102094.16
2022-12-04T03:28:54.045Z,102099.94
2022-12-04T03:31:31.163Z,102099.56
2022-12-04T03:34:03.940Z,102102.81
2022-12-04T03:36:37.213Z,102100.72
2022-12-04T03:39:12.854Z,102104.63
2022-12-04T03:41:54.730Z,102103.56
2022-12-04T03:44:28.369Z,102099.16
2022-12-04T03:47:05.563Z,102100.31
2022-12-04T03:49:44.795Z,102101.06
2022-12-04T03:52:19.998Z,102100.22
2022-12-04T03:54:52.486Z,102100.41
2022-12-04T03:57:24.405Z,102100.16
2022-12-04T04:00:00.170Z,102093.75
2022-12-04T04:02:35.727Z,102106.03
2022-12-04T04:05:08.062Z,102096.47
2022-12-04T04:07:42.547Z,102096.06
2022-12-04T04:10:15.003Z,102090.50
2022-12-04T04:13:08.484Z,102091.47
2022-12-04T04:15:58.250Z,102096.19
2022-12-04T04:18:47.229Z,102099.63
2022-12-04T04:21:37.080Z,102097.31
2022-12-04T04:24:15.716Z,102099.56
2022-12-04T04:26:47.479Z,102105.22
2022-12-04T04:29:15.497Z,102099.81
2022-12-04T04:31:47.641Z,102102.16
2022-12-04T04:34:21.619Z,102093.97
2022-12-04T04:36:56.493Z,102086.34
2022-12-04T04:39:33.936Z,102088.84
2022-12-04T04:42:05.917Z,102092.13
2022-12-04T04:44:40.968Z,102092.69
2022-12-04T04:47:15.811Z,102093.00
2022-12-04T04:49:48.511Z,102092.91
2022-12-04T04:52:18.531Z,102093.56
2022-12-04T04:54:48.154Z,102090.59
2022-12-04T04:57:27.805Z,102098.47
2022-12-04T04:59:56.944Z,102101.97
2022-12-04T05:02:27.439Z,102106.75
2022-12-04T05:04:57.498Z,102105.03
2022-12-04T05:07:25.940Z,102101.28
2022-12-04T05:09:55.055Z,102107.91
2022-12-04T05:12:23.630Z,102105.53
2022-12-04T05:14:52.092Z,102104.94
2022-12-04T05:17:20.490Z,102110.13
2022-12-04T05:19:57.870Z,102110.03
2022-12-04T05:22:31.687Z,102111.00
2022-12-04T05:25:00.545Z,102111.78
2022-12-04T05:27:30.457Z,102106.94
2022-12-04T05:29:59.563Z,102114.88
2022-12-04T05:32:28.984Z,102117.03
2022-12-04T05:34:58.163Z,102116.47
2022-12-04T05:37:27.463Z,102115.53
2022-12-04T05:39:55.699Z,102118.41
2022-12-04T05:42:24.107Z,102117.06
2022-12-04T05:44:52.040Z,102119.38
2022-12-04T05:47:20.077Z,102114.59
2022-12-04T05:49:47.918Z,102127.59
2022-12-04T05:52:16.033Z,102128.16
2022-12-04T05:54:45.367Z,102121.72
2022-12-04T05:57:13.197Z,102131.28
2022-12-04T05:59:41.010Z,102115.06
2022-12-04T06:02:08.919Z,102110.44
2022-12-04T06:04:38.960Z,102108.50
2022-12-04T06:07:07.068Z,102118.44
2022-12-04T06:09:34.987Z,102109.16
2022-12-04T06:12:05.468Z,102103.44
2022-12-04T06:14:39.111Z,102117.63
2022-12-04T06:17:07.584Z,102113.72
2022-12-04T06:19:35.428Z,102108.31
2022-12-04T06:22:03.420Z,102119.03
2022-12-04T06:24:31.306Z,102112.69
2022-12-04T06:29:49.650Z,102116.91
2022-12-04T06:32:21.491Z,102123.09
2022-12-04T06:34:52.947Z,102123.75
2022-12-04T06:37:21.255Z,102112.28
2022-12-04T06:39:49.527Z,102118.22
2022-12-04T06:42:17.721Z,102121.06
2022-12-04T06:44:45.792Z,102117.47
2022-12-04T06:47:15.388Z,102123.75
2022-12-04T06:49:43.342Z,102122.69
2022-12-04T06:52:11.291Z,102125.19
2022-12-04T06:54:39.340Z,102119.78
2022-12-04T06:57:07.305Z,102116.22
2022-12-04T06:59:35.234Z,102114.97
2022-12-04T07:02:03.127Z,102117.00
2022-12-04T07:04:32.516Z,102117.94
2022-12-04T07:07:00.509Z,102122.47
2022-12-04T07:09:28.438Z,102120.72
2022-12-04T07:11:56.238Z,102114.41
2022-12-04T07:14:24.119Z,102120.66
2022-12-04T07:16:52.050Z,102118.09
2022-12-04T07:19:20.124Z,102117.97
2022-12-04T07:21:49.541Z,102119.50
2022-12-04T07:24:18.520Z,102120.59
2022-12-04T07:26:47.047Z,102121.63
2022-12-04T07:29:15.023Z,102119.25
2022-12-04T07:31:44.439Z,102122.34
2022-12-04T07:34:12.569Z,102117.78
2022-12-04T07:36:41.312Z,102120.94
2022-12-04T07:39:10.712Z,102124.44
2022-12-04T07:41:38.855Z,102130.31
2022-12-04T07:44:09.411Z,102129.72
2022-12-04T07:46:37.551Z,102125.38
2022-12-04T07:49:05.428Z,102121.34
2022-12-04T07:51:33.354Z,102132.34
2022-12-04T07:54:03.997Z,102125.59
2022-12-04T07:56:34.686Z,102133.47
2022-12-04T07:59:03.225Z,102131.34
2022-12-04T08:01:31.443Z,102129.41
2022-12-04T08:04:01.260Z,102129.13
2022-12-04T08:06:30.679Z,102126.59
2022-12-04T08:08:58.724Z,102130.75
2022-12-04T08:11:28.706Z,102132.72
2022-12-04T08:13:59.102Z,102129.81
2022-12-04T08:16:29.139Z,102137.72
2022-12-04T08:18:58.226Z,102142.75
2022-12-04T08:21:28.106Z,102142.53
2022-12-04T08:23:57.958Z,102144.47
2022-12-04T08:26:28.187Z,102146.97
2022-12-04T08:28:56.497Z,102139.09
2022-12-04T08:31:27.723Z,102149.00
2022-12-04T08:33:57.851Z,102149.00
2022-12-04T08:36:27.120Z,102158.53
2022-12-04T08:38:55.585Z,102153.47
2022-12-04T08:41:26.111Z,102153.13
2022-12-04T08:43:56.033Z,102149.09
2022-12-04T08:46:27.257Z,102155.16
2022-12-04T08:48:56.657Z,102144.38
2022-12-04T08:51:26.617Z,102144.56
2022-12-04T08:53:56.554Z,102148.31
2022-12-04T08:56:25.537Z,102149.00
2022-12-04T08:58:54.181Z,102146.97
2022-12-04T09:01:22.287Z,102151.69
2022-12-04T09:03:56.800Z,102142.94
2022-12-04T09:06:25.276Z,102150.06
2022-12-04T09:08:54.325Z,102151.69
2022-12-04T09:11:24.514Z,102154.28
2022-12-04T09:13:52.627Z,102150.41
2022-12-04T09:16:24.195Z,102150.13
2022-12-04T09:18:53.652Z,102145.09
2022-12-04T09:21:23.232Z,102148.78
2022-12-04T09:23:52.293Z,102152.16
2022-12-04T09:26:24.380Z,102146.81
2022-12-04T09:28:53.276Z,102156.34
2022-12-04T09:31:22.297Z,102154.44
2022-12-04T09:33:50.559Z,102158.22
2022-12-04T09:36:19.868Z,102153.66
2022-12-04T09:38:49.886Z,102150.56
2022-12-04T09:41:34.782Z,102155.19
2022-12-04T09:44:05.416Z,102150.69
2022-12-04T09:46:37.649Z,102148.69
2022-12-04T09:49:20.121Z,102151.88
2022-12-04T09:51:54.266Z,102146.66
2022-12-04T09:54:29.658Z,102146.09
2022-12-04T09:57:03.439Z,102142.94
2022-12-04T09:59:34.075Z,102151.22
2022-12-04T10:02:23.312Z,102149.66
2022-12-04T10:04:52.888Z,102149.28
2022-12-04T10:07:31.114Z,102151.69
2022-12-04T10:10:10.303Z,102145.22
2022-12-04T10:12:51.853Z,102152.78
2022-12-04T10:15:36.199Z,102145.97
2022-12-04T10:18:34.765Z,102144.72
2022-12-04T10:21:38.483Z,102137.31
2022-12-04T10:24:24.098Z,102156.09
2022-12-04T10:26:56.662Z,102149.66
2022-12-04T10:29:31.365Z,102142.50
2022-12-04T10:32:13.759Z,102149.81
2022-12-04T10:34:45.601Z,102145.22
2022-12-04T10:37:15.798Z,102145.81
2022-12-04T10:39:51.761Z,102140.00
2022-12-04T10:42:29.957Z,102140.41
2022-12-04T10:44:58.406Z,102143.78
2022-12-04T10:47:26.610Z,102139.16
2022-12-04T10:50:01.030Z,102141.91
2022-12-04T10:52:29.148Z,102135.75
2022-12-04T10:55:00.136Z,102139.16
2022-12-04T10:57:38.025Z,102142.44
2022-12-04T11:00:25.223Z,102139.00
2022-12-04T11:02:53.819Z,102118.19
2022-12-04T11:05:28.128Z,102131.31
2022-12-04T11:07:57.142Z,102128.63
2022-12-04T11:10:34.345Z,102127.44
2022-12-04T11:13:04.877Z,102128.03
2022-12-04T11:15:36.445Z,102127.66
2022-12-04T11:18:15.224Z,102124.75
2022-12-04T11:20:50.749Z,102122.16
2022-12-04T11:23:19.375Z,102103.25
2022-12-04T11:25:50.827Z,102101.25
2022-12-04T11:28:40.558Z,102110.25
2022-12-04T11:31:11.822Z,102114.78
2022-12-04T11:33:44.336Z,102115.13
2022-12-04T11:36:22.042Z,102116.81
2022-12-04T11:38:51.366Z,102111.78
2022-12-04T11:41:28.171Z,102116.09
2022-12-04T11:43:59.967Z,102122.25
2022-12-04T11:46:30.571Z,102121.13
2022-12-04T11:48:59.129Z,102122.25
2022-12-04T11:51:47.499Z,102115.09
2022-12-04T11:54:25.871Z,102113.56
2022-12-04T11:57:08.612Z,102109.16
2022-12-04T11:59:49.780Z,102101.41
2022-12-04T12:02:35.265Z,102081.78
2022-12-04T12:05:45.157Z,102078.41
2022-12-04T12:08:30.168Z,102078.88
2022-12-04T12:11:07.196Z,102075.97
2022-12-04T12:13:49.282Z,102068.66
2022-12-04T12:16:26.445Z,102081.16
2022-12-04T12:19:12.743Z,102075.00
2022-12-04T12:21:54.044Z,102074.78
2022-12-04T12:24:28.033Z,102073.72
2022-12-04T12:27:08.137Z,102070.84
2022-12-04T12:30:01.781Z,102072.03
2022-12-04T12:32:52.371Z,102069.25
2022-12-04T12:35:26.046Z,102072.50
2022-12-04T12:37:58.269Z,102074.09
2022-12-04T12:40:34.417Z,102072.19
2022-12-04T12:43:08.392Z,102079.09
2022-12-04T12:45:46.551Z,102070.88
2022-12-04T12:48:27.498Z,102076.00
2022-12-04T12:53:53.677Z,102076.16
2022-12-04T12:56:31.046Z,102076.50
2022-12-04T12:59:04.819Z,102072.84
2022-12-04T13:01:44.441Z,102080.41
2022-12-04T13:04:19.391Z,102075.22
2022-12-04T13:06:52.593Z,102066.78
2022-12-04T13:09:26.233Z,102067.53
2022-12-04T13:12:04.331Z,102060.09
2022-12-04T13:14:32.230Z,102056.50
2022-12-04T13:17:06.886Z,102066.66
2022-12-04T13:19:43.470Z,102066.22
2022-12-04T13:22:20.116Z,102057.38
2022-12-04T13:25:05.194Z,102052.09
2022-12-04T13:27:46.401Z,102047.56
2022-12-04T13:30:20.162Z,102044.00
2022-12-04T13:33:29.096Z,102050.16
2022-12-04T13:36:28.325Z,102048.84
2022-12-04T13:39:18.299Z,102037.94
2022-12-04T13:41:46.567Z,102028.81
2022-12-04T13:44:22.069Z,102028.81
2022-12-04T13:46:55.697Z,102028.41
2022-12-04T13:49:28.497Z,102019.88
2022-12-04T13:51:58.981Z,102027.88
2022-12-04T13:54:30.542Z,102034.78
2022-12-04T13:57:10.954Z,102021.59
2022-12-04T13:59:40.532Z,102023.88
2022-12-04T14:02:26.076Z,102029.28
2022-12-04T14:04:58.560Z,102025.50
2022-12-04T14:07:31.464Z,102028.06
2022-12-04T14:10:04.776Z,102031.22
2022-12-04T14:12:37.712Z,102030.53
2022-12-04T14:15:09.570Z,102036.47
2022-12-04T14:17:40.848Z,102022.44
2022-12-04T14:20:25.683Z,102025.22
2022-12-04T14:22:53.803Z,102023.59
2022-12-04T14:25:35.771Z,102027.84
2022-12-04T14:28:23.772Z,102026.19
2022-12-04T14:31:04.707Z,102035.88
2022-12-04T14:33:37.000Z,102031.56
2022-12-04T14:36:10.708Z,102033.00
2022-12-04T14:38:39.795Z,102040.47
2022-12-04T14:41:08.463Z,102045.25
2022-12-04T14:43:40.386Z,102044.75
2022-12-04T14:46:16.551Z,102044.47
2022-12-04T14:48:54.684Z,102047.31
2022-12-04T14:51:32.336Z,102043.44
2022-12-04T14:54:07.110Z,102049.78
2022-12-04T14:56:47.757Z,102043.53
2022-12-04T14:59:19.251Z,102047.13
2022-12-04T15:01:49.545Z,102041.66
2022-12-04T15:04:24.659Z,102048.69
2022-12-04T15:06:59.926Z,102051.13
2022-12-04T15:09:47.060Z,102058.75
2022-12-04T15:12:37.125Z,102056.13
2022-12-04T15:15:19.439Z,102049.34
2022-12-04T15:18:01.189Z,102057.22
2022-12-04T15:20:36.088Z,102057.69
2022-12-04T15:23:12.866Z,102063.09
2022-12-04T15:25:45.502Z,102060.94
2022-12-04T15:28:17.970Z,102057.16
2022-12-04T15:30:47.288Z,102065.94
2022-12-04T15:33:21.756Z,102060.88
2022-12-04T15:35:53.752Z,102063.44
2022-12-04T15:38:23.645Z,102058.91
2022-12-04T15:40:54.299Z,102064.88
2022-12-04T15:43:29.707Z,102066.94
2022-12-04T15:45:58.494Z,102072.56
2022-12-04T15:48:33.234Z,102079.69
2022-12-04T15:51:05.031Z,102074.59
2022-12-04T15:53:37.794Z,102073.28
2022-12-04T15:56:08.478Z,102072.44
2022-12-04T15:58:39.088Z,102073.09
2022-12-04T16:01:08.966Z,102076.00
2022-12-04T16:03:45.222Z,102076.75
2022-12-04T16:06:18.148Z,102077.19
2022-12-04T16:08:49.904Z,102068.69
2022-12-04T16:11:33.796Z,102079.50
2022-12-04T16:14:15.860Z,102077.97
2022-12-04T16:16:46.215Z,102081.19
2022-12-04T16:19:18.990Z,102076.22
2022-12-04T16:21:47.169Z,102079.47
2022-12-04T16:24:16.772Z,102070.16
2022-12-04T16:26:44.661Z,102079.91
2022-12-04T16:29:12.609Z,102084.66
2022-12-04T16:31:40.693Z,102079.59
2022-12-04T16:34:10.037Z,102078.28
2022-12-04T16:36:38.176Z,102074.72
2022-12-04T16:39:06.108Z,102080.78
2022-12-04T16:41:35.572Z,102077.97
2022-12-04T16:44:03.796Z,102080.25
2022-12-04T16:46:31.719Z,102081.78
2022-12-04T16:49:05.816Z,102081.78
2022-12-04T16:51:37.392Z,102088.91
2022-12-04T16:54:05.686Z,102082.63
2022-12-04T16:56:35.167Z,102080.81
2022-12-04T16:59:05.567Z,102077.00
2022-12-04T17:01:41.878Z,102081.88
2022-12-04T17:04:11.281Z,102084.03
2022-12-04T17:06:39.224Z,102081.56
2022-12-04T17:09:08.043Z,102083.81
2022-12-04T17:11:38.074Z,102082.94
2022-12-04T17:14:07.927Z,102084.47
2022-12-04T17:16:36.661Z,102080.91
2022-12-04T17:19:05.251Z,102079.50
2022-12-04T17:21:34.255Z,102081.25
2022-12-04T17:24:02.968Z,102070.41
2022-12-04T17:26:31.474Z,102066.63
2022-12-04T17:29:02.121Z,102080.16
2022-12-04T17:31:31.804Z,102071.38
2022-12-04T17:34:00.087Z,102064.66
2022-12-04T17:36:28.478Z,102065.09
2022-12-04T17:38:58.237Z,102067.16
2022-12-04T17:41:26.525Z,102075.28
2022-12-04T17:43:54.691Z,102076.56
2022-12-04T17:46:24.476Z,102072.88
2022-12-04T17:48:53.062Z,102064.88
2022-12-04T17:51:22.782Z,102065.09
2022-12-04T17:53:50.856Z,102068.03
2022-12-04T17:56:21.889Z,102067.69
2022-12-04T17:58:50.359Z,102066.28
2022-12-04T18:01:21.509Z,102073.88
2022-12-04T18:03:52.863Z,102076.69
2022-12-04T18:06:22.874Z,102072.25
2022-12-04T18:08:51.237Z,102073.44
2022-12-04T18:11:29.886Z,102077.66
2022-12-04T18:14:01.378Z,102086.00
2022-12-04T18:16:43.291Z,102081.88
2022-12-04T18:19:12.725Z,102079.28
2022-12-04T18:21:40.667Z,102078.09
2022-12-04T18:24:08.866Z,102074.19
2022-12-04T18:26:41.457Z,102077.00
2022-12-04T18:29:11.805Z,102086.09
2022-12-04T18:31:39.881Z,102082.41
2022-12-04T18:34:09.091Z,102083.06
2022-12-04T18:36:40.442Z,102083.59
2022-12-04T18:39:12.659Z,102085.47
2022-12-04T18:41:40.739Z,102091.63
2022-12-04T18:44:09.068Z,102081.97
2022-12-04T18:46:37.189Z,102095.63
2022-12-04T18:49:05.490Z,102091.72
2022-12-04T18:51:39.651Z,102096.16
2022-12-04T18:54:09.395Z,102096.91
2022-12-04T18:56:37.787Z,102104.19
2022-12-04T18:59:08.036Z,102106.53
2022-12-04T19:01:36.218Z,102099.84
2022-12-04T19:04:07.718Z,102109.69
2022-12-04T19:06:37.769Z,102119.03
2022-12-04T19:09:09.572Z,102110.47
2022-12-04T19:11:38.455Z,102116.53
2022-12-04T19:14:17.527Z,102113.59
2022-12-04T19:16:52.069Z,102107.97
2022-12-04T19:19:20.009Z,102116.19
2022-12-04T19:21:48.015Z,102112.50
2022-12-04T19:24:18.058Z,102115.53
2022-12-04T19:26:47.641Z,102118.59
2022-12-04T19:29:16.109Z,102114.91
2022-12-04T19:31:44.349Z,102118.56
2022-12-04T19:34:12.263Z,102119.09
2022-12-04T19:36:41.123Z,102117.16
2022-12-04T19:39:09.183Z,102112.16
2022-12-04T19:41:40.972Z,102125.06
2022-12-04T19:44:40.238Z,102115.38
2022-12-04T19:46:58.879Z,102119.41
2022-12-04T19:49:26.851Z,102125.94
2022-12-04T19:51:54.769Z,102122.66
2022-12-04T19:54:23.815Z,102122.13
2022-12-04T19:56:53.272Z,102126.88
2022-12-04T19:59:21.368Z,102120.72
2022-12-04T20:01:49.340Z,102124.94
2022-12-04T20:04:17.658Z,102131.75
2022-12-04T20:06:47.438Z,102127.09
2022-12-04T20:09:20.135Z,102131.13
2022-12-04T20:11:48.278Z,102137.19
2022-12-04T20:14:18.027Z,102142.38
2022-12-04T20:16:46.727Z,102141.63
2022-12-04T20:19:16.464Z,102133.81
2022-12-04T20:21:45.004Z,102138.91
2022-12-04T20:24:15.470Z,102136.84
2022-12-04T20:26:45.183Z,102120.91
2022-12-04T20:29:18.711Z,102128.81
2022-12-04T20:31:48.063Z,102130.28
2022-12-04T20:34:18.245Z,102123.28
2022-12-04T20:36:47.428Z,102128.94
2022-12-04T20:39:16.859Z,102128.16
2022-12-04T20:41:44.921Z,102125.16
2022-12-04T20:44:15.240Z,102114.75
2022-12-04T20:46:43.797Z,102118.59
2022-12-04T20:49:20.736Z,102116.69
2022-12-04T20:51:50.091Z,102112.22
2022-12-04T20:54:20.119Z,102112.75
2022-12-04T20:56:49.171Z,102107.97
2022-12-04T20:59:18.591Z,102106.59
2022-12-04T21:01:47.226Z,102101.25
2022-12-04T21:04:17.802Z,102091.28
2022-12-04T21:06:46.550Z,102089.50
2022-12-04T21:09:16.395Z,102092.72
2022-12-04T21:11:45.924Z,102085.88
2022-12-04T21:14:33.137Z,102081.00
2022-12-04T21:17:02.363Z,102080.91
2022-12-04T21:19:32.211Z,102089.34
2022-12-04T21:22:00.720Z,102082.53
2022-12-04T21:24:30.315Z,102089.78
2022-12-04T21:26:58.268Z,102080.59
2022-12-04T21:29:31.364Z,102075.50
2022-12-04T21:31:59.672Z,102076.22
2022-12-04T21:34:27.575Z,102079.53
2022-12-04T21:36:56.774Z,102081.22
2022-12-04T21:39:25.259Z,102078.16
2022-12-04T21:42:11.162Z,102080.78
2022-12-04T21:44:39.386Z,102078.94
2022-12-04T21:47:07.376Z,102074.38
2022-12-04T21:49:35.187Z,102067.47
2022-12-04T21:52:04.669Z,102060.28
2022-12-04T21:54:32.531Z,102067.09
2022-12-04T21:57:00.514Z,102071.22
2022-12-04T21:59:28.559Z,102070.81
2022-12-04T22:01:58.370Z,102064.16
2022-12-04T22:04:30.881Z,102060.28
2022-12-04T22:07:02.098Z,102066.22
2022-12-04T22:09:31.476Z,102062.97
2022-12-04T22:11:59.275Z,102068.41
2022-12-04T22:14:27.911Z,102064.38
2022-12-04T22:16:55.905Z,102070.44
2022-12-04T22:19:23.791Z,102063.75
2022-12-04T22:22:18.730Z,102064.06
2022-12-04T22:24:49.888Z,102057.69
2022-12-04T22:27:17.815Z,102061.50
2022-12-04T22:29:50.578Z,102060.28
2022-12-04T22:32:19.268Z,102068.53
2022-12-04T22:34:48.625Z,102068.53
2022-12-04T22:37:33.762Z,102069.56
2022-12-04T22:40:22.436Z,102053.97
2022-12-04T22:42:50.295Z,102056.69
2022-12-04T22:45:20.006Z,102057.56
2022-12-04T22:47:47.800Z,102054.13
2022-12-04T22:50:15.679Z,102053.00
2022-12-04T22:52:43.625Z,102057.56
2022-12-04T22:55:12.844Z,102046.91
2022-12-04T22:57:41.494Z,102062.75
2022-12-04T23:00:10.484Z,102063.84
2022-12-04T23:02:38.470Z,102065.25
2022-12-04T23:05:06.562Z,102053.97
2022-12-04T23:07:34.565Z,102054.38
2022-12-04T23:10:02.551Z,102048.53
2022-12-04T23:12:31.893Z,102063.94
2022-12-04T23:14:59.800Z,102064.66
2022-12-04T23:17:27.769Z,102067.38
2022-12-04T23:19:56.121Z,102062.91
2022-12-04T23:22:24.132Z,102065.75
2022-12-04T23:24:51.916Z,102064.66
2022-12-04T23:27:19.711Z,102062.91
2022-12-04T23:29:53.470Z,102069.44
2022-12-04T23:32:21.746Z,102064.25
2022-12-04T23:34:49.732Z,102070.03
2022-12-04T23:37:17.999Z,102062.44
2022-12-04T23:39:45.795Z,102070.25
2022-12-04T23:42:13.632Z,102068.19
2022-12-04T23:44:41.524Z,102061.13
2022-12-04T23:47:10.768Z,102056.91
2022-12-04T23:49:38.701Z,102061.03
2022-12-04T23:52:06.563Z,102054.75
2022-12-04T23:54:35.868Z,102052.78
2022-12-04T23:57:03.923Z,102053.53
2022-12-04T23:59:31.859Z,102049.56
